sensor_id;sensor_type;location;lat;lon;timestamp;temperature;humidity
13686;DHT22;6915;48.296;8.874;2024-03-02T11:59:19;15.10;99.90
13686;DHT22;6915;48.296;8.874;2024-03-02T12:01:47;15.00;99.90
13686;DHT22;6915;48.296;8.874;2024-03-02T12:04:16;14.70;99.90
13686;DHT22;6915;48.296;8.874;2024-03-02T12:06:44;14.70;99.90
13686;DHT22;6915;48.296;8.874;2024-03-02T14:10:17;14.90;99.90
13686;DHT22;6915;48.296;8.874;2024-03-02T14:12:47;15.40;99.90
13686;DHT22;6915;48.296;8.874;2024-03-02T14:15:15;15.40;99.90
13686;DHT22;6915;48.296;8.874;2024-03-02T14:17:42;15.20;99.90
13686;DHT22;6915;48.296;8.874;2024-03-02T14:20:10;15.00;99.90
13686;DHT22;6915;48.296;8.874;2024-03-02T14:22:39;14.80;99.90
13686;DHT22;6915;48.296;8.874;2024-03-02T16:25:22;11.40;99.90
13686;DHT22;6915;48.296;8.874;2024-03-02T16:27:51;11.20;99.90
13686;DHT22;6915;48.296;8.874;2024-03-02T16:30:19;11.20;99.90
13686;DHT22;6915;48.296;8.874;2024-03-02T16:32:50;11.20;99.90
13686;DHT22;6915;48.296;8.874;2024-03-02T16:35:18;11.20;99.90
13686;DHT22;6915;48.296;8.874;2024-03-02T16:37:46;11.10;99.90
13686;DHT22;6915;48.296;8.874;2024-03-02T16:40:14;11.10;99.90
13686;DHT22;6915;48.296;8.874;2024-03-02T16:42:46;11.20;99.90
13686;DHT22;6915;48.296;8.874;2024-03-02T16:45:17;11.20;99.90
13686;DHT22;6915;48.296;8.874;2024-03-02T16:47:45;11.10;99.90
13686;DHT22;6915;48.296;8.874;2024-03-02T16:50:22;11.00;99.90
13686;DHT22;6915;48.296;8.874;2024-03-02T16:52:55;10.90;99.90
13686;DHT22;6915;48.296;8.874;2024-03-02T16:55:41;10.90;99.90
13686;DHT22;6915;48.296;8.874;2024-03-02T17:04:53;10.60;99.90
13686;DHT22;6915;48.296;8.874;2024-03-02T17:07:51;10.50;99.90
13686;DHT22;6915;48.296;8.874;2024-03-02T17:10:39;10.50;99.90
13686;DHT22;6915;48.296;8.874;2024-03-02T17:13:33;10.50;99.90
13686;DHT22;6915;48.296;8.874;2024-03-02T17:16:18;10.40;99.90
13686;DHT22;6915;48.296;8.874;2024-03-02T17:33:17;10.10;99.90
13686;DHT22;6915;48.296;8.874;2024-03-02T17:36:14;10.20;99.90
13686;DHT22;6915;48.296;8.874;2024-03-02T17:39:24;10.10;99.90
13686;DHT22;6915;48.296;8.874;2024-03-02T17:42:11;10.30;99.90
13686;DHT22;6915;48.296;8.874;2024-03-02T17:45:12;10.30;99.90
13686;DHT22;6915;48.296;8.874;2024-03-02T21:27:03;6.60;99.90
13686;DHT22;6915;48.296;8.874;2024-03-02T21:29:35;6.50;99.90
13686;DHT22;6915;48.296;8.874;2024-03-02T21:32:13;6.50;99.90
13686;DHT22;6915;48.296;8.874;2024-03-02T21:34:50;6.70;99.90
13686;DHT22;6915;48.296;8.874;2024-03-02T21:37:22;6.60;99.90
13686;DHT22;6915;48.296;8.874;2024-03-02T23:49:37;6.00;99.90
13686;DHT22;6915;48.296;8.874;2024-03-02T23:52:11;6.00;99.90
13686;DHT22;6915;48.296;8.874;2024-03-02T23:54:42;5.90;99.90
13686;DHT22;6915;48.296;8.874;2024-03-02T23:57:27;5.90;99.90
